createdAt,value
2023-06-30T00:00:18.201Z,247.26
2023-06-30T00:01:18.296Z,247.24
2023-06-30T00:02:18.403Z,245.56
2023-06-30T00:03:18.559Z,246.93
2023-06-30T00:04:18.465Z,247.64
2023-06-30T00:05:18.507Z,246.97
2023-06-30T00:06:18.544Z,246.91
2023-06-30T00:07:18.642Z,247.51
2023-06-30T00:08:18.643Z,246.30
2023-06-30T00:09:18.705Z,246.71
2023-06-30T00:10:18.761Z,247.15
2023-06-30T00:11:18.813Z,247.19
2023-06-30T00:12:18.853Z,246.08
2023-06-30T00:13:18.893Z,246.59
2023-06-30T00:14:18.940Z,247.23
2023-06-30T00:15:19.021Z,247.57
2023-06-30T00:16:19.096Z,248.90
2023-06-30T00:17:19.155Z,248.32
2023-06-30T00:18:19.191Z,247.05
2023-06-30T00:19:19.208Z,246.20
2023-06-30T00:20:19.301Z,246.50
2023-06-30T00:21:19.350Z,247.30
2023-06-30T00:22:19.377Z,247.80
2023-06-30T00:23:19.433Z,247.70
2023-06-30T00:24:19.432Z,248.21
2023-06-30T00:25:19.487Z,248.30
2023-06-30T00:26:19.499Z,246.08
2023-06-30T00:27:19.554Z,247.15
2023-06-30T00:28:19.620Z,248.21
2023-06-30T00:29:19.688Z,247.03
2023-06-30T00:30:19.731Z,247.98
2023-06-30T00:31:19.860Z,247.75
2023-06-30T00:32:19.934Z,247.57
2023-06-30T00:33:19.947Z,247.44
2023-06-30T00:34:19.991Z,248.62
2023-06-30T00:35:20.040Z,248.55
2023-06-30T00:36:20.042Z,248.54
2023-06-30T00:37:20.133Z,247.29
2023-06-30T00:38:20.213Z,249.26
2023-06-30T00:39:20.210Z,248.67
2023-06-30T00:40:20.254Z,250.35
2023-06-30T00:41:20.323Z,249.22
2023-06-30T00:42:20.365Z,247.84
2023-06-30T00:43:20.437Z,247.86
2023-06-30T00:44:20.434Z,249.37
2023-06-30T00:45:20.498Z,248.30
2023-06-30T00:46:20.503Z,248.26
2023-06-30T00:47:20.603Z,248.54
2023-06-30T00:48:20.623Z,249.36
2023-06-30T00:49:20.621Z,248.39
2023-06-30T00:50:20.656Z,248.53
2023-06-30T00:51:20.759Z,248.63
2023-06-30T00:52:20.793Z,250.00
2023-06-30T00:53:20.862Z,247.16
2023-06-30T00:54:20.901Z,250.00
2023-06-30T00:55:20.930Z,249.55
2023-06-30T00:56:20.986Z,248.77
2023-06-30T00:57:21.040Z,247.45
2023-06-30T00:58:21.102Z,249.70
2023-06-30T00:59:21.169Z,250.00
2023-06-30T01:00:21.244Z,249.41
2023-06-30T01:01:21.354Z,249.59
2023-06-30T01:02:21.350Z,248.06
2023-06-30T01:03:21.505Z,248.36
2023-06-30T01:04:21.515Z,248.59
2023-06-30T01:05:21.490Z,247.94
2023-06-30T01:06:21.572Z,250.00
2023-06-30T01:07:21.667Z,246.94
2023-06-30T01:08:21.658Z,249.18
2023-06-30T01:09:21.687Z,247.12
2023-06-30T01:10:21.733Z,247.84
2023-06-30T01:11:21.802Z,247.38
2023-06-30T01:12:21.855Z,248.39
2023-06-30T01:13:21.894Z,247.40
2023-06-30T01:14:21.912Z,247.32
2023-06-30T01:15:21.961Z,247.54
2023-06-30T01:16:22.088Z,247.40
2023-06-30T01:17:22.121Z,247.87
2023-06-30T01:18:22.129Z,247.68
2023-06-30T01:19:22.143Z,248.49
2023-06-30T01:20:22.228Z,248.95
2023-06-30T01:21:22.311Z,249.53
2023-06-30T01:22:23.168Z,248.00
2023-06-30T01:23:22.357Z,248.48
2023-06-30T01:24:22.449Z,248.01
2023-06-30T01:25:22.488Z,247.55
2023-06-30T01:26:22.578Z,248.81
2023-06-30T01:27:22.569Z,247.83
2023-06-30T01:28:22.570Z,247.84
2023-06-30T01:29:22.654Z,247.42
2023-06-30T01:30:22.697Z,247.32
2023-06-30T01:31:22.754Z,246.62
2023-06-30T01:32:22.834Z,247.03
2023-06-30T01:33:22.851Z,246.89
2023-06-30T01:34:22.858Z,248.31
2023-06-30T01:35:22.936Z,247.56
2023-06-30T01:36:22.985Z,247.98
2023-06-30T01:37:23.016Z,246.60
2023-06-30T01:38:23.075Z,248.17
2023-06-30T01:39:23.115Z,247.02
2023-06-30T01:40:23.198Z,248.35
2023-06-30T01:41:23.230Z,246.76
2023-06-30T01:42:23.340Z,246.49
2023-06-30T01:43:23.342Z,248.20
2023-06-30T01:44:23.391Z,247.35
2023-06-30T01:45:23.492Z,247.91
2023-06-30T01:46:23.563Z,248.97
2023-06-30T01:47:23.583Z,246.99
2023-06-30T01:48:23.599Z,246.36
2023-06-30T01:49:23.685Z,248.33
2023-06-30T01:50:23.714Z,247.56
2023-06-30T01:51:23.766Z,247.25
2023-06-30T01:52:23.799Z,248.95
2023-06-30T01:53:23.851Z,247.66
2023-06-30T01:54:23.873Z,248.91
2023-06-30T01:55:23.916Z,247.56
2023-06-30T01:56:23.989Z,249.38
2023-06-30T01:57:24.035Z,249.67
2023-06-30T01:58:24.088Z,248.62
2023-06-30T01:59:24.147Z,248.65
2023-06-30T02:00:24.169Z,248.70
2023-06-30T02:01:24.265Z,248.06
2023-06-30T02:02:24.357Z,247.52
2023-06-30T02:03:24.493Z,249.48
2023-06-30T02:04:24.323Z,249.19
2023-06-30T02:05:24.428Z,248.24
2023-06-30T02:06:24.442Z,247.87
2023-06-30T02:07:24.611Z,248.00
2023-06-30T02:08:24.589Z,249.05
2023-06-30T02:09:30.925Z,248.46
2023-06-30T02:10:25.594Z,248.57
2023-06-30T02:11:24.597Z,248.66
2023-06-30T02:12:24.591Z,248.64
2023-06-30T02:13:24.544Z,248.68
2023-06-30T02:14:24.566Z,248.72
2023-06-30T02:15:24.579Z,246.35
2023-06-30T02:16:24.584Z,247.84
2023-06-30T02:17:24.589Z,247.69
2023-06-30T02:18:24.567Z,247.20
2023-06-30T02:19:24.611Z,247.44
2023-06-30T02:20:24.631Z,246.69
2023-06-30T02:21:24.647Z,248.03
2023-06-30T02:22:24.687Z,246.67
2023-06-30T02:23:24.766Z,247.38
2023-06-30T02:24:24.807Z,245.89
2023-06-30T02:25:24.862Z,246.30
2023-06-30T02:26:24.869Z,246.68
2023-06-30T02:27:24.985Z,245.59
2023-06-30T02:28:25.009Z,246.24
2023-06-30T02:29:25.058Z,246.40
2023-06-30T02:30:25.099Z,247.14
2023-06-30T02:31:25.204Z,245.71
2023-06-30T02:32:25.343Z,246.95
2023-06-30T02:33:25.290Z,246.74
2023-06-30T02:34:25.301Z,246.82
2023-06-30T02:35:25.446Z,246.30
2023-06-30T02:36:25.405Z,247.95
2023-06-30T02:37:25.514Z,247.72
2023-06-30T02:38:25.537Z,246.03
2023-06-30T02:39:25.605Z,246.61
2023-06-30T02:40:25.657Z,245.90
2023-06-30T02:41:25.720Z,247.19
2023-06-30T02:42:25.824Z,246.52
2023-06-30T02:43:25.837Z,245.67
2023-06-30T02:44:25.942Z,247.69
2023-06-30T02:45:25.950Z,246.20
2023-06-30T02:46:26.129Z,245.21
2023-06-30T02:47:26.117Z,246.94
2023-06-30T02:48:26.151Z,245.54
2023-06-30T02:49:26.188Z,247.17
2023-06-30T02:50:26.280Z,245.63
2023-06-30T02:51:26.330Z,246.89
2023-06-30T02:52:26.384Z,247.82
2023-06-30T02:53:26.439Z,246.18
2023-06-30T02:54:26.507Z,247.10
2023-06-30T02:55:26.583Z,248.08
2023-06-30T02:56:26.618Z,248.10
2023-06-30T02:57:26.683Z,247.17
2023-06-30T02:58:26.788Z,247.21
2023-06-30T02:59:26.789Z,246.20
2023-06-30T03:00:26.808Z,247.40
2023-06-30T03:01:26.921Z,246.27
2023-06-30T03:02:27.162Z,245.24
2023-06-30T03:03:27.034Z,246.14
2023-06-30T03:04:27.085Z,245.67
2023-06-30T03:05:27.016Z,246.42
2023-06-30T03:06:27.096Z,245.70
2023-06-30T03:07:27.175Z,245.87
2023-06-30T03:08:27.200Z,245.74
2023-06-30T03:09:27.249Z,244.61
2023-06-30T03:10:27.327Z,244.61
2023-06-30T03:11:27.378Z,245.14
2023-06-30T03:12:27.413Z,245.69
2023-06-30T03:13:27.468Z,247.14
2023-06-30T03:14:27.514Z,247.00
2023-06-30T03:15:27.562Z,246.45
2023-06-30T03:16:27.690Z,246.04
2023-06-30T03:17:27.736Z,246.60
2023-06-30T03:18:27.732Z,246.82
2023-06-30T03:19:27.745Z,246.95
2023-06-30T03:20:27.807Z,246.24
2023-06-30T03:21:27.875Z,246.91
2023-06-30T03:22:27.900Z,246.32
2023-06-30T03:23:27.956Z,246.79
2023-06-30T03:24:27.993Z,247.41
2023-06-30T03:25:28.045Z,246.56
2023-06-30T03:26:28.057Z,247.14
2023-06-30T03:27:28.103Z,248.11
2023-06-30T03:28:28.131Z,246.85
2023-06-30T03:29:28.198Z,246.26
2023-06-30T03:30:28.285Z,246.92
2023-06-30T03:31:28.378Z,245.42
2023-06-30T03:32:28.357Z,245.36
2023-06-30T03:33:28.375Z,245.41
2023-06-30T03:34:28.456Z,245.85
2023-06-30T03:35:28.492Z,245.71
2023-06-30T03:36:28.484Z,245.71
2023-06-30T03:37:28.542Z,246.79
2023-06-30T03:38:28.589Z,246.70
2023-06-30T03:39:28.618Z,246.35
2023-06-30T03:40:28.715Z,247.55
2023-06-30T03:41:28.718Z,246.99
2023-06-30T03:42:28.717Z,246.52
2023-06-30T03:43:28.830Z,245.80
2023-06-30T03:44:28.868Z,247.39
2023-06-30T03:45:28.899Z,247.33
2023-06-30T03:46:29.026Z,246.18
2023-06-30T03:47:29.082Z,246.76
2023-06-30T03:48:29.086Z,247.56
2023-06-30T03:49:29.133Z,246.46
2023-06-30T03:50:29.201Z,247.01
2023-06-30T03:51:29.259Z,247.09
2023-06-30T03:52:29.300Z,245.98
2023-06-30T03:53:29.366Z,246.50
2023-06-30T03:54:29.438Z,246.52
2023-06-30T03:55:29.498Z,246.38
2023-06-30T03:56:29.548Z,246.69
2023-06-30T03:57:29.606Z,246.25
2023-06-30T03:58:29.645Z,246.57
2023-06-30T03:59:29.722Z,246.71
2023-06-30T04:00:29.759Z,246.53
2023-06-30T04:01:29.783Z,244.65
2023-06-30T04:02:29.903Z,247.39
2023-06-30T04:03:30.084Z,246.93
2023-06-30T04:04:30.034Z,248.08
2023-06-30T04:05:30.002Z,248.34
2023-06-30T04:06:30.083Z,246.16
2023-06-30T04:07:30.262Z,246.11
2023-06-30T04:08:30.342Z,246.97
2023-06-30T04:09:30.237Z,246.88
2023-06-30T04:10:30.319Z,246.55
2023-06-30T04:11:30.354Z,245.67
2023-06-30T04:12:30.409Z,246.97
2023-06-30T04:13:30.507Z,245.99
2023-06-30T07:45:56.168Z,25.00
2023-06-30T07:46:56.503Z,25.00
2023-06-30T07:47:56.208Z,25.00
2023-06-30T07:48:56.152Z,25.00
2023-06-30T07:49:56.090Z,25.00
2023-06-30T07:51:08.477Z,0.00
2023-06-30T07:51:57.075Z,0.00
2023-06-30T07:52:56.080Z,0.00
2023-06-30T07:53:56.071Z,0.00
2023-06-30T07:54:56.024Z,0.00
2023-06-30T07:55:56.030Z,0.00
2023-06-30T07:56:56.007Z,0.00
2023-06-30T07:57:56.059Z,0.00
2023-06-30T07:58:56.001Z,0.00
2023-06-30T07:59:58.429Z,0.00
2023-06-30T08:00:56.234Z,0.00
2023-06-30T08:01:56.255Z,0.00
2023-06-30T08:02:56.519Z,0.00
2023-06-30T08:03:56.547Z,0.00
2023-06-30T08:04:56.496Z,0.00
2023-06-30T08:05:56.568Z,0.00
2023-06-30T08:06:56.384Z,0.00
2023-06-30T08:07:56.588Z,0.00
2023-06-30T08:08:56.465Z,0.00
2023-06-30T08:09:56.505Z,0.00
2023-06-30T08:10:56.517Z,0.00
2023-06-30T08:11:56.561Z,0.00
2023-06-30T08:12:56.602Z,0.00
2023-06-30T08:13:56.617Z,0.00
2023-06-30T08:14:56.708Z,0.00
2023-06-30T08:15:56.893Z,0.00
2023-06-30T08:16:58.306Z,5.27
2023-06-30T08:17:57.064Z,3.09
2023-06-30T08:18:56.920Z,0.00
2023-06-30T08:19:56.981Z,0.00
2023-06-30T08:20:56.969Z,0.00
2023-06-30T08:21:57.045Z,3.03
2023-06-30T08:22:57.033Z,3.98
2023-06-30T08:23:57.123Z,22.66
2023-06-30T08:24:57.211Z,26.55
2023-06-30T08:25:57.239Z,25.00
2023-06-30T08:26:57.277Z,25.00
2023-06-30T08:27:57.269Z,26.61
2023-06-30T08:28:57.312Z,25.00
2023-06-30T08:29:57.360Z,36.89
2023-06-30T08:30:57.837Z,39.81
2023-06-30T08:31:57.340Z,41.18
2023-06-30T08:32:57.623Z,46.92
2023-06-30T08:33:57.361Z,71.30
2023-06-30T08:34:57.353Z,61.45
2023-06-30T08:35:57.329Z,72.31
2023-06-30T08:36:57.411Z,48.75
2023-06-30T08:37:57.434Z,39.46
2023-06-30T08:38:57.485Z,25.00
2023-06-30T08:39:57.594Z,36.84
2023-06-30T08:40:57.640Z,44.20
2023-06-30T08:41:57.710Z,48.18
2023-06-30T08:42:57.758Z,22.04
2023-06-30T08:43:57.798Z,25.49
2023-06-30T08:44:57.911Z,29.68
2023-06-30T08:45:57.920Z,23.57
2023-06-30T08:46:58.021Z,35.29
2023-06-30T08:47:58.122Z,39.62
2023-06-30T08:48:58.102Z,41.71
2023-06-30T08:49:58.200Z,36.28
2023-06-30T08:50:58.233Z,20.92
2023-06-30T08:51:58.221Z,30.15
2023-06-30T08:52:58.265Z,27.73
2023-06-30T08:53:58.275Z,38.64
2023-06-30T08:54:58.376Z,47.67
2023-06-30T08:55:58.399Z,54.92
2023-06-30T08:56:58.422Z,72.48
2023-06-30T08:58:00.592Z,62.59
2023-06-30T08:58:59.461Z,63.46
2023-06-30T08:59:58.467Z,67.42
2023-06-30T09:00:58.597Z,75.83
2023-06-30T09:01:58.521Z,94.25
2023-06-30T09:02:58.548Z,116.51
2023-06-30T09:03:58.506Z,119.66
2023-06-30T09:04:58.461Z,134.15
2023-06-30T09:05:58.466Z,128.69
2023-06-30T09:07:00.511Z,114.33
2023-06-30T09:07:58.406Z,107.39
2023-06-30T09:08:58.435Z,100.97
2023-06-30T09:09:58.382Z,105.69
2023-06-30T09:10:58.408Z,93.63
2023-06-30T09:11:58.371Z,113.08
2023-06-30T09:12:58.384Z,106.28
2023-06-30T09:13:58.342Z,111.70
2023-06-30T09:14:58.393Z,113.39
2023-06-30T09:15:58.380Z,131.16
2023-06-30T09:16:58.489Z,120.24
2023-06-30T09:17:58.381Z,127.55
2023-06-30T09:18:58.343Z,132.61
2023-06-30T09:19:58.328Z,122.75
2023-06-30T09:20:58.352Z,125.43
2023-06-30T09:21:58.333Z,132.95
2023-06-30T09:22:58.365Z,132.34
2023-06-30T09:23:58.322Z,137.14
2023-06-30T09:24:58.286Z,141.37
2023-06-30T09:25:58.365Z,148.74
2023-06-30T09:26:58.269Z,152.81
2023-06-30T09:27:58.281Z,157.98
2023-06-30T09:28:58.290Z,146.14
2023-06-30T09:29:58.249Z,148.16
2023-06-30T09:30:58.308Z,148.87
2023-06-30T09:32:21.042Z,25.00
2023-06-30T09:33:20.961Z,25.00
2023-06-30T09:34:21.011Z,25.00
2023-06-30T09:35:20.989Z,25.00
2023-06-30T09:36:20.936Z,25.00
2023-06-30T09:37:20.952Z,30.04
2023-06-30T09:38:20.954Z,25.99
2023-06-30T09:39:21.009Z,34.22
2023-06-30T09:40:20.936Z,39.83
2023-06-30T09:41:20.942Z,23.93
2023-06-30T09:42:20.923Z,40.46
2023-06-30T09:43:20.935Z,39.45
2023-06-30T09:44:20.916Z,36.77
2023-06-30T09:45:20.933Z,42.95
2023-06-30T09:46:20.970Z,26.26
2023-06-30T09:47:20.974Z,25.86
2023-06-30T09:48:20.960Z,26.35
2023-06-30T09:49:20.874Z,53.32
2023-06-30T09:50:20.883Z,44.97
2023-06-30T09:51:20.831Z,25.00
2023-06-30T09:52:20.893Z,28.75
2023-06-30T09:53:20.901Z,41.02
2023-06-30T09:54:28.844Z,77.40
2023-06-30T09:55:21.837Z,77.69
2023-06-30T09:56:21.150Z,79.52
2023-06-30T09:57:20.812Z,83.08
2023-06-30T09:58:20.814Z,87.49
2023-06-30T09:59:20.836Z,88.52
2023-06-30T10:00:34.496Z,96.33
2023-06-30T10:01:22.270Z,94.58
2023-06-30T10:02:20.830Z,92.74
2023-06-30T10:03:20.883Z,88.17
2023-06-30T10:04:20.810Z,94.75
2023-06-30T10:05:20.773Z,91.45
2023-06-30T10:06:21.201Z,96.42
2023-06-30T10:07:20.855Z,76.39
2023-06-30T10:08:20.757Z,92.46
2023-06-30T10:09:20.744Z,96.81
2023-06-30T10:10:20.737Z,105.69
2023-06-30T10:11:20.770Z,100.94
2023-06-30T10:12:20.727Z,89.24
2023-06-30T10:13:20.743Z,69.59
2023-06-30T10:14:20.731Z,70.13
2023-06-30T10:15:20.715Z,84.28
2023-06-30T10:16:20.704Z,77.72
2023-06-30T10:17:20.726Z,73.64
2023-06-30T10:18:20.752Z,84.36
2023-06-30T10:19:20.670Z,101.75
2023-06-30T10:20:23.690Z,110.11
2023-06-30T10:21:21.662Z,110.87
2023-06-30T10:22:20.658Z,114.99
2023-06-30T10:23:20.821Z,110.82
2023-06-30T10:24:20.664Z,113.27
2023-06-30T10:25:20.667Z,131.38
2023-06-30T10:26:20.721Z,140.95
2023-06-30T10:27:20.613Z,129.95
2023-06-30T10:28:20.666Z,135.22
2023-06-30T10:29:20.637Z,126.22
2023-06-30T10:30:20.603Z,133.27
2023-06-30T10:31:20.686Z,145.60
2023-06-30T10:32:20.605Z,157.38
2023-06-30T10:33:20.690Z,162.33
2023-06-30T10:34:20.600Z,167.83
2023-06-30T10:35:20.591Z,153.98
2023-06-30T10:36:20.571Z,162.14
2023-06-30T10:37:20.576Z,170.49
2023-06-30T10:38:20.578Z,173.11
2023-06-30T10:39:20.554Z,175.22
2023-06-30T10:40:20.610Z,172.55
2023-06-30T10:41:20.868Z,177.89
2023-06-30T10:42:20.555Z,179.32
2023-06-30T10:43:20.534Z,175.43
2023-06-30T10:44:20.543Z,115.33
2023-06-30T10:45:20.516Z,113.35
2023-06-30T10:46:20.566Z,109.99
2023-06-30T10:47:20.519Z,101.12
2023-06-30T10:48:20.515Z,99.83
2023-06-30T10:49:20.523Z,109.19
2023-06-30T10:50:20.519Z,102.22
2023-06-30T10:51:20.488Z,95.27
2023-06-30T10:52:20.487Z,91.99
2023-06-30T10:53:20.509Z,83.73
2023-06-30T10:54:20.523Z,76.33
2023-06-30T10:55:20.459Z,68.58
2023-06-30T10:56:20.447Z,65.44
2023-06-30T10:57:20.483Z,59.06
2023-06-30T10:58:20.496Z,53.80
2023-06-30T10:59:20.544Z,51.02
2023-06-30T11:00:20.516Z,38.22
2023-06-30T11:01:20.563Z,39.17
2023-06-30T11:02:20.604Z,32.84
2023-06-30T11:03:20.709Z,28.12
2023-06-30T11:04:20.756Z,27.19
2023-06-30T11:05:20.638Z,26.54
2023-06-30T11:06:20.697Z,25.38
2023-06-30T11:07:20.722Z,25.58
2023-06-30T11:08:20.659Z,26.27
2023-06-30T11:09:20.714Z,25.00
2023-06-30T11:10:20.729Z,25.00
2023-06-30T11:11:20.776Z,25.24
2023-06-30T11:12:20.777Z,25.00
2023-06-30T11:13:20.802Z,27.15
2023-06-30T11:14:20.834Z,25.00
2023-06-30T11:15:20.862Z,26.73
2023-06-30T11:16:20.869Z,26.51
2023-06-30T11:17:20.933Z,25.49
2023-06-30T11:18:20.977Z,25.07
2023-06-30T11:19:20.975Z,26.23
2023-06-30T11:20:20.943Z,26.08
2023-06-30T11:21:20.984Z,28.64
2023-06-30T11:22:20.967Z,25.00
2023-06-30T11:23:21.685Z,26.29
2023-06-30T11:24:21.027Z,25.12
2023-06-30T11:25:21.036Z,26.62
2023-06-30T11:26:21.039Z,25.00
2023-06-30T11:27:21.081Z,25.00
2023-06-30T11:28:21.077Z,27.53
2023-06-30T11:29:21.185Z,26.52
2023-06-30T11:30:21.169Z,26.90
2023-06-30T11:31:21.310Z,25.57
2023-06-30T11:32:21.191Z,25.56
2023-06-30T11:33:21.223Z,25.14
2023-06-30T11:34:21.249Z,25.00
2023-06-30T11:35:21.325Z,25.68
2023-06-30T11:36:21.725Z,24.59
2023-06-30T11:37:21.357Z,27.37
2023-06-30T11:38:21.393Z,25.65
2023-06-30T11:39:21.392Z,28.02
2023-06-30T11:40:21.396Z,28.46
2023-06-30T11:41:21.859Z,25.00
2023-06-30T11:42:21.479Z,25.00
2023-06-30T11:43:21.487Z,25.44
2023-06-30T11:44:21.481Z,25.30
2023-06-30T11:45:21.533Z,25.00
2023-06-30T11:46:21.752Z,27.91
2023-06-30T11:47:21.721Z,25.00
2023-06-30T11:48:21.595Z,25.63
2023-06-30T11:49:21.606Z,26.27
2023-06-30T11:50:21.689Z,25.06
2023-06-30T11:51:21.674Z,26.90
2023-06-30T11:52:21.682Z,25.00
2023-06-30T11:53:21.721Z,24.01
2023-06-30T11:54:21.755Z,26.23
2023-06-30T11:55:21.765Z,25.00
2023-06-30T11:56:22.244Z,25.92
2023-06-30T11:57:21.824Z,26.85
2023-06-30T11:58:21.831Z,26.92
2023-06-30T11:59:21.833Z,28.01
2023-06-30T12:00:21.869Z,25.26
2023-06-30T12:01:22.260Z,25.61
2023-06-30T12:02:22.013Z,25.48
2023-06-30T12:03:21.949Z,25.00
2023-06-30T12:04:22.085Z,28.91
2023-06-30T12:05:22.029Z,30.29
2023-06-30T12:06:22.233Z,37.17
2023-06-30T12:07:22.083Z,32.68
2023-06-30T12:08:22.095Z,34.30
2023-06-30T12:09:22.112Z,38.35
2023-06-30T12:10:22.118Z,39.32
2023-06-30T12:11:22.228Z,32.62
2023-06-30T12:12:22.186Z,30.61
2023-06-30T12:13:22.246Z,27.31
2023-06-30T12:14:22.260Z,26.93
2023-06-30T12:15:22.285Z,25.00
2023-06-30T12:16:22.417Z,27.35
2023-06-30T12:17:22.339Z,26.68
2023-06-30T12:18:22.353Z,28.74
2023-06-30T12:19:22.417Z,26.26
2023-06-30T12:20:22.479Z,26.44
2023-06-30T12:21:22.429Z,25.00
2023-06-30T12:22:22.470Z,26.61
2023-06-30T12:23:22.472Z,25.40
2023-06-30T12:24:22.558Z,25.60
2023-06-30T12:25:22.529Z,29.42
2023-06-30T12:26:22.585Z,31.00
2023-06-30T12:27:22.588Z,31.16
2023-06-30T12:28:22.609Z,31.80
2023-06-30T12:29:22.626Z,26.01
2023-06-30T12:30:22.680Z,26.87
2023-06-30T12:31:22.703Z,25.00
2023-06-30T12:32:22.755Z,29.49
2023-06-30T12:33:22.718Z,25.87
2023-06-30T12:34:22.784Z,30.84
2023-06-30T12:35:22.761Z,40.95
2023-06-30T12:36:23.260Z,39.10
2023-06-30T12:37:22.880Z,43.86
2023-06-30T12:38:22.954Z,47.05
2023-06-30T12:39:22.939Z,41.19
2023-06-30T12:40:22.946Z,31.05
2023-06-30T12:41:23.006Z,25.88
2023-06-30T12:42:23.040Z,30.92
2023-06-30T12:43:23.054Z,26.28
2023-06-30T12:44:23.020Z,25.00
2023-06-30T12:45:23.093Z,28.04
2023-06-30T12:46:23.172Z,27.09
2023-06-30T12:47:23.263Z,25.80
2023-06-30T12:48:23.184Z,27.72
2023-06-30T12:49:23.189Z,32.31
2023-06-30T12:50:23.820Z,25.00
2023-06-30T12:51:23.268Z,27.36
2023-06-30T12:52:23.256Z,42.64
2023-06-30T12:53:23.308Z,41.40
2023-06-30T12:54:23.353Z,42.49
2023-06-30T12:55:23.380Z,38.03
2023-06-30T12:56:23.423Z,39.99
2023-06-30T12:57:23.401Z,34.34
2023-06-30T12:58:23.810Z,37.79
2023-06-30T12:59:23.493Z,41.81
2023-06-30T13:00:23.561Z,41.06
2023-06-30T13:01:30.837Z,37.11
2023-06-30T13:02:23.557Z,37.34
2023-06-30T13:03:23.679Z,37.69
2023-06-30T13:04:23.849Z,38.03
2023-06-30T13:05:23.512Z,39.34
2023-06-30T13:06:23.782Z,36.15
2023-06-30T13:07:23.627Z,39.48
2023-06-30T13:08:23.514Z,39.97
2023-06-30T13:09:23.531Z,32.35
2023-06-30T13:10:23.849Z,38.73
2023-06-30T13:11:23.823Z,38.98
2023-06-30T13:12:23.459Z,39.99
2023-06-30T13:13:23.500Z,40.42
2023-06-30T13:14:23.457Z,44.06
2023-06-30T13:15:23.453Z,44.14
2023-06-30T13:16:23.873Z,43.80
2023-06-30T13:17:23.477Z,38.95
2023-06-30T13:18:23.433Z,39.58
2023-06-30T13:19:23.429Z,33.15
2023-06-30T13:20:23.459Z,36.26
2023-06-30T13:21:23.775Z,34.37
2023-06-30T13:22:23.419Z,31.80
2023-06-30T13:23:32.279Z,29.97
2023-06-30T13:24:26.426Z,30.24
2023-06-30T13:25:23.384Z,30.41
2023-06-30T13:26:23.806Z,31.59
2023-06-30T13:27:23.404Z,32.29
2023-06-30T13:28:23.427Z,31.02
2023-06-30T13:29:23.394Z,33.12
2023-06-30T13:30:23.731Z,27.18
2023-06-30T13:31:23.826Z,28.25
2023-06-30T13:32:23.427Z,28.60
2023-06-30T13:33:23.304Z,26.92
2023-06-30T13:34:23.314Z,25.00
2023-06-30T13:35:23.390Z,25.07
2023-06-30T13:36:24.242Z,28.09
2023-06-30T13:37:23.311Z,28.51
2023-06-30T13:38:23.311Z,32.63
2023-06-30T13:39:23.325Z,32.62
2023-06-30T13:40:23.278Z,29.85
2023-06-30T13:41:23.812Z,36.99
2023-06-30T13:42:23.319Z,38.45
2023-06-30T13:43:23.271Z,38.52
2023-06-30T13:44:23.273Z,32.99
2023-06-30T13:45:23.254Z,27.17
2023-06-30T13:46:23.344Z,33.68
2023-06-30T13:47:23.407Z,39.79
2023-06-30T13:48:23.338Z,32.41
2023-06-30T13:49:23.346Z,41.38
2023-06-30T13:50:23.416Z,39.88
2023-06-30T13:51:23.783Z,40.28
2023-06-30T13:52:23.483Z,40.22
2023-06-30T13:53:24.082Z,43.72
2023-06-30T13:54:23.550Z,42.43
2023-06-30T13:55:23.593Z,41.68
2023-06-30T13:56:23.645Z,41.38
2023-06-30T13:57:23.711Z,46.64
2023-06-30T13:58:23.726Z,45.14
2023-06-30T13:59:23.763Z,45.24
2023-06-30T14:00:23.764Z,45.75
2023-06-30T14:01:23.865Z,48.55
2023-06-30T14:02:23.887Z,54.49
2023-06-30T14:03:23.915Z,57.20
2023-06-30T14:04:23.977Z,48.81
2023-06-30T14:05:24.061Z,53.85
2023-06-30T14:06:24.015Z,52.59
2023-06-30T14:07:24.060Z,53.01
2023-06-30T14:08:24.102Z,52.56
2023-06-30T14:09:24.139Z,52.53
2023-06-30T14:10:24.241Z,54.05
2023-06-30T14:11:24.322Z,55.30
2023-06-30T14:12:24.264Z,53.91
2023-06-30T14:13:24.333Z,54.20
2023-06-30T14:14:24.357Z,50.85
2023-06-30T14:15:24.450Z,52.49
2023-06-30T14:16:24.889Z,50.76
2023-06-30T14:17:24.510Z,52.10
2023-06-30T14:18:24.545Z,52.73
2023-06-30T14:19:24.595Z,51.40
2023-06-30T14:20:24.633Z,54.54
2023-06-30T14:21:24.802Z,57.56
2023-06-30T14:22:24.734Z,61.96
2023-06-30T14:23:24.811Z,64.43
2023-06-30T14:24:24.870Z,61.48
2023-06-30T14:25:24.945Z,64.85
2023-06-30T14:26:24.954Z,67.64
2023-06-30T14:27:25.059Z,68.19
2023-06-30T14:28:25.062Z,67.34
2023-06-30T14:29:25.193Z,68.71
2023-06-30T14:30:25.174Z,70.46
2023-06-30T14:31:25.281Z,72.60
2023-06-30T14:32:25.309Z,68.53
2023-06-30T14:33:25.284Z,71.03
2023-06-30T14:34:25.326Z,68.03
2023-06-30T14:35:25.391Z,68.84
2023-06-30T14:36:25.837Z,69.53
2023-06-30T14:37:25.472Z,70.37
2023-06-30T14:38:25.547Z,72.92
2023-06-30T14:39:25.607Z,72.21
2023-06-30T14:40:25.654Z,75.42
2023-06-30T14:41:25.877Z,80.39
2023-06-30T14:42:32.189Z,81.67
2023-06-30T14:43:26.745Z,81.85
2023-06-30T14:44:25.779Z,82.48
2023-06-30T14:45:25.712Z,83.42
2023-06-30T14:46:25.760Z,85.85
2023-06-30T14:47:25.788Z,88.19
2023-06-30T14:48:26.293Z,94.03
2023-06-30T14:49:25.712Z,97.76
2023-06-30T14:50:25.733Z,97.40
2023-06-30T14:51:25.821Z,99.54
2023-06-30T14:52:25.857Z,102.76
2023-06-30T14:53:25.860Z,100.45
2023-06-30T14:54:25.918Z,105.57
2023-06-30T14:55:25.963Z,106.90
2023-06-30T14:56:26.322Z,109.43
2023-06-30T14:57:26.182Z,110.58
2023-06-30T14:58:26.173Z,117.49
2023-06-30T14:59:26.200Z,123.98
2023-06-30T15:00:26.294Z,126.46
2023-06-30T15:01:26.810Z,128.60
2023-06-30T15:02:26.525Z,133.15
2023-06-30T15:03:26.541Z,134.82
2023-06-30T15:04:26.539Z,139.04
2023-06-30T15:05:26.563Z,144.99
2023-06-30T15:06:26.850Z,144.56
2023-06-30T15:07:26.671Z,153.83
2023-06-30T15:08:26.757Z,160.25
2023-06-30T15:09:26.800Z,161.43
2023-06-30T15:10:26.904Z,166.26
2023-06-30T15:11:27.349Z,169.76
2023-06-30T15:12:26.944Z,173.64
2023-06-30T15:13:27.023Z,180.38
2023-06-30T15:14:27.118Z,184.98
2023-06-30T15:15:27.111Z,187.86
2023-06-30T15:16:27.368Z,193.90
2023-06-30T15:17:27.217Z,196.81
2023-06-30T15:18:27.237Z,202.85
2023-06-30T15:19:27.302Z,204.42
2023-06-30T15:20:27.308Z,211.44
2023-06-30T15:21:27.388Z,213.36
2023-06-30T15:22:27.431Z,218.72
2023-06-30T15:23:27.476Z,221.74
2023-06-30T15:24:27.558Z,224.84
2023-06-30T15:25:27.794Z,223.94
2023-06-30T15:26:27.867Z,229.92
2023-06-30T15:27:27.763Z,234.43
2023-06-30T15:28:27.804Z,235.39
2023-06-30T15:29:27.824Z,239.02
2023-06-30T15:30:27.898Z,241.96
2023-06-30T15:31:27.983Z,245.61
2023-06-30T15:32:28.064Z,248.82
2023-06-30T15:33:28.112Z,247.74
2023-06-30T15:34:28.130Z,247.46
2023-06-30T15:35:28.199Z,249.07
2023-06-30T15:36:28.215Z,248.47
2023-06-30T15:37:28.291Z,248.56
2023-06-30T15:38:28.368Z,249.28
2023-06-30T15:39:28.409Z,249.32
2023-06-30T15:40:28.446Z,248.81
2023-06-30T15:41:28.519Z,248.75
2023-06-30T15:42:28.555Z,247.94
2023-06-30T15:43:28.602Z,248.26
2023-06-30T15:44:28.683Z,250.00
2023-06-30T15:45:28.754Z,248.04
2023-06-30T15:46:28.856Z,246.55
2023-06-30T15:47:28.897Z,247.85
2023-06-30T15:48:28.917Z,249.30
2023-06-30T15:49:28.987Z,249.86
2023-06-30T15:50:29.044Z,247.03
2023-06-30T15:51:29.342Z,247.97
2023-06-30T15:52:29.136Z,247.88
2023-06-30T15:53:29.185Z,248.81
2023-06-30T15:54:29.233Z,248.93
2023-06-30T15:55:29.381Z,249.02
2023-06-30T15:56:29.846Z,244.98
2023-06-30T15:57:29.409Z,246.08
2023-06-30T15:58:29.455Z,250.00
2023-06-30T15:59:29.523Z,248.02
2023-06-30T16:00:29.551Z,250.00
2023-06-30T16:01:29.829Z,249.53
2023-06-30T16:02:29.715Z,250.29
2023-06-30T16:03:29.846Z,249.37
2023-06-30T16:04:29.883Z,248.99
2023-06-30T16:05:30.018Z,228.11
2023-06-30T16:06:30.366Z,227.16
2023-06-30T16:07:29.928Z,214.42
2023-06-30T16:08:29.970Z,205.87
2023-06-30T16:09:30.035Z,205.78
2023-06-30T16:10:30.069Z,200.13
2023-06-30T16:11:30.335Z,191.90
2023-06-30T16:12:30.269Z,184.14